Waskesiu Lake, Canada
Current Conditions -  °F | °C
As of 11:00 AM on Saturday 25 Oct 2014 (Local Time) from CYPA Reporting Station
Few Clouds Few Clouds  
Wind Chill: 36°   Ceiling: Unl
Heat Index: 43°   Visibility: 15mi
Dew Point: 30°   Wind: 14mph
Humidity: 61%   Direction: 310°NW
Pressure: 30.01"   Gusts: 21mph
Location:  53.92°N, 106.08°W
Report Text: CYPA 251700Z 31012G18KT 15SM FEW026 FEW035 FEW250 06/M01 A3001 RMK CU1SC1CI1 CU TR SC TR CI TR SLP181
Loading
Personal Weather Stations






























Interactive Weather Map New forecast layout! Learn more

10-Day Weather Forecast

Advertisements
Track Severe Weather on mobile